createdAt,value
2022-12-12T00:02:57.873Z,994.56
2022-12-12T00:07:57.679Z,994.62
2022-12-12T00:12:57.571Z,994.68
2022-12-12T00:17:57.512Z,994.69
2022-12-12T00:22:57.617Z,994.70
2022-12-12T00:27:57.403Z,994.72
2022-12-12T00:32:57.353Z,994.71
2022-12-12T00:37:57.257Z,994.69
2022-12-12T00:42:57.370Z,994.67
2022-12-12T00:47:57.172Z,994.69
2022-12-12T00:52:57.257Z,994.74
2022-12-12T00:57:57.055Z,994.76
2022-12-12T01:03:05.891Z,994.80
2022-12-12T01:07:57.020Z,994.87
2022-12-12T01:12:56.917Z,994.85
2022-12-12T01:17:56.878Z,994.96
2022-12-12T01:22:56.796Z,994.97
2022-12-12T01:27:56.773Z,995.01
2022-12-12T01:32:56.782Z,995.07
2022-12-12T01:37:56.672Z,995.13
2022-12-12T01:42:56.612Z,995.11
2022-12-12T01:47:59.277Z,995.12
2022-12-12T01:52:57.547Z,995.15
2022-12-12T01:57:56.509Z,995.11
2022-12-12T02:02:56.381Z,995.14
2022-12-12T02:07:56.440Z,995.17
2022-12-12T02:12:56.253Z,995.12
2022-12-12T02:17:56.223Z,995.11
2022-12-12T02:22:56.156Z,995.16
2022-12-12T02:27:56.205Z,995.09
2022-12-12T02:32:56.043Z,995.10
2022-12-12T02:37:56.018Z,995.08
2022-12-12T02:42:55.921Z,995.10
2022-12-12T02:47:55.994Z,995.06
2022-12-12T02:52:55.865Z,995.05
2022-12-12T02:57:55.789Z,995.08
2022-12-12T03:02:55.797Z,995.12
2022-12-12T03:07:55.663Z,995.20
2022-12-12T03:12:55.631Z,995.20
2022-12-12T03:17:55.549Z,995.20
2022-12-12T03:22:55.534Z,995.21
2022-12-12T03:27:55.480Z,995.18
2022-12-12T03:32:55.396Z,995.14
2022-12-12T03:37:55.347Z,995.14
2022-12-12T03:42:55.275Z,995.17
2022-12-12T03:47:56.279Z,995.11
2022-12-12T03:52:55.299Z,995.19
2022-12-12T03:57:55.122Z,995.20
2022-12-12T04:02:55.077Z,995.23
2022-12-12T04:07:55.147Z,995.27
2022-12-12T04:12:55.019Z,995.29
2022-12-12T04:17:54.911Z,995.28
2022-12-12T04:22:54.860Z,995.30
2022-12-12T04:27:54.815Z,995.29
2022-12-12T04:32:54.733Z,995.29
2022-12-12T04:37:54.695Z,995.38
2022-12-12T04:42:54.687Z,995.44
2022-12-12T04:47:54.611Z,995.48
2022-12-12T04:52:54.667Z,995.53
2022-12-12T04:57:54.467Z,995.55
2022-12-12T05:02:54.413Z,995.56
2022-12-12T05:07:54.552Z,995.52
2022-12-12T05:12:54.372Z,995.54
2022-12-12T05:17:54.346Z,995.57
2022-12-12T05:22:54.216Z,995.61
2022-12-12T05:27:54.151Z,995.68
2022-12-12T05:32:54.070Z,995.66
2022-12-12T05:37:54.030Z,995.62
2022-12-12T05:42:53.977Z,995.69
2022-12-12T05:47:53.950Z,995.73
2022-12-12T05:52:53.900Z,995.73
2022-12-12T05:57:53.841Z,995.71
2022-12-12T06:02:53.879Z,995.69
2022-12-12T06:07:53.816Z,995.75
2022-12-12T06:12:53.675Z,995.79
2022-12-12T06:17:53.588Z,995.83
2022-12-12T06:22:54.092Z,995.90
2022-12-12T06:27:53.500Z,995.88
2022-12-12T06:32:53.480Z,995.92
2022-12-12T06:37:53.396Z,995.98
2022-12-12T06:42:53.401Z,995.99
2022-12-12T06:47:53.369Z,996.07
2022-12-12T06:52:53.348Z,996.11
2022-12-12T06:57:53.157Z,996.11
2022-12-12T07:02:53.141Z,996.08
2022-12-12T07:08:01.949Z,996.07
2022-12-12T07:12:57.290Z,996.13
2022-12-12T07:17:53.063Z,996.19
2022-12-12T07:22:54.882Z,996.29
2022-12-12T07:27:54.075Z,996.31
2022-12-12T07:32:54.053Z,996.34
2022-12-12T07:37:52.943Z,996.49
2022-12-12T07:42:53.000Z,996.53
2022-12-12T07:47:52.785Z,996.53
2022-12-12T07:52:52.684Z,996.56
2022-12-12T07:57:52.572Z,996.62
2022-12-12T08:02:52.554Z,996.49
2022-12-12T08:07:52.557Z,996.56
2022-12-12T08:12:52.561Z,996.59
2022-12-12T08:17:52.398Z,996.63
2022-12-12T08:22:52.350Z,996.69
2022-12-12T08:27:52.281Z,996.70
2022-12-12T08:32:52.278Z,996.71
2022-12-12T08:37:52.231Z,996.71
2022-12-12T08:42:52.147Z,996.69
2022-12-12T08:47:52.147Z,996.71
2022-12-12T08:52:51.997Z,996.74
2022-12-12T08:57:51.961Z,996.76
2022-12-12T09:02:51.958Z,996.77
2022-12-12T09:07:51.876Z,996.81
2022-12-12T09:12:51.862Z,996.84
2022-12-12T09:17:51.841Z,996.84
2022-12-12T09:22:51.784Z,996.92
2022-12-12T09:27:51.640Z,996.92
2022-12-12T09:32:51.602Z,997.04
2022-12-12T09:37:51.523Z,997.07
2022-12-12T09:42:51.499Z,996.96
2022-12-12T09:47:51.447Z,997.00
2022-12-12T09:52:51.384Z,996.98
2022-12-12T09:57:51.388Z,997.00
2022-12-12T10:02:51.270Z,996.99
2022-12-12T10:07:51.261Z,996.95
2022-12-12T10:12:51.145Z,996.99
2022-12-12T10:17:51.139Z,996.92
2022-12-12T10:22:51.128Z,996.94
2022-12-12T10:27:52.062Z,996.83
2022-12-12T10:32:50.924Z,996.81
2022-12-12T10:37:51.898Z,996.80
2022-12-12T10:42:50.981Z,996.84
2022-12-12T10:47:51.749Z,996.85
2022-12-12T10:52:50.800Z,996.84
2022-12-12T10:57:51.781Z,996.74
2022-12-12T11:02:53.299Z,996.74
2022-12-12T11:07:51.571Z,996.70
2022-12-12T11:12:50.484Z,996.63
2022-12-12T11:17:50.396Z,996.64
2022-12-12T11:22:50.424Z,996.63
2022-12-12T11:27:50.301Z,996.57
2022-12-12T11:32:50.512Z,996.48
2022-12-12T11:37:50.250Z,996.48
2022-12-12T11:42:50.308Z,996.49
2022-12-12T11:47:50.139Z,996.43
2022-12-12T11:52:50.262Z,996.39
2022-12-12T11:57:50.045Z,996.29
2022-12-12T12:02:50.113Z,996.33
2022-12-12T12:07:49.939Z,996.35
2022-12-12T12:12:49.825Z,996.27
2022-12-12T12:17:49.946Z,996.31
2022-12-12T12:22:49.726Z,996.21
2022-12-12T12:27:49.811Z,996.29
2022-12-12T12:32:49.903Z,996.33
2022-12-12T12:37:49.743Z,996.32
2022-12-12T12:42:50.112Z,996.31
2022-12-12T12:47:49.424Z,996.31
2022-12-12T12:52:49.622Z,996.35
2022-12-12T12:57:49.525Z,996.27
2022-12-12T13:02:49.311Z,996.26
2022-12-12T13:07:49.294Z,996.19
2022-12-12T13:12:49.275Z,996.17
2022-12-12T13:17:49.335Z,996.15
2022-12-12T13:22:55.622Z,996.12
2022-12-12T13:27:49.042Z,996.09
2022-12-12T13:32:49.209Z,996.11
2022-12-12T13:37:50.188Z,996.13
2022-12-12T13:42:50.212Z,996.20
2022-12-12T13:47:48.864Z,996.27
2022-12-12T13:52:48.803Z,996.18
2022-12-12T13:57:48.968Z,996.17
2022-12-12T14:02:48.690Z,996.19
2022-12-12T14:07:48.792Z,996.28
2022-12-12T14:12:48.693Z,996.26
2022-12-12T14:17:49.638Z,996.19
2022-12-12T14:22:48.524Z,996.21
2022-12-12T14:27:48.359Z,996.22
2022-12-12T14:32:57.186Z,996.18
2022-12-12T14:37:51.579Z,996.24
2022-12-12T14:43:18.698Z,996.27
2022-12-12T14:47:49.148Z,996.35
2022-12-12T14:52:48.095Z,996.32
2022-12-12T14:57:48.031Z,996.33
2022-12-12T15:02:48.043Z,996.33
2022-12-12T15:07:47.914Z,996.29
2022-12-12T15:12:47.832Z,996.35
2022-12-12T15:17:47.802Z,996.38
2022-12-12T15:22:47.812Z,996.44
2022-12-12T15:27:55.009Z,996.53
2022-12-12T15:32:48.695Z,996.56
2022-12-12T15:37:47.586Z,996.57
2022-12-12T15:42:47.512Z,996.59
2022-12-12T15:47:47.593Z,996.69
2022-12-12T15:52:47.502Z,996.83
2022-12-12T15:57:47.392Z,996.85
2022-12-12T16:02:47.369Z,996.80
2022-12-12T16:07:47.326Z,996.79
2022-12-12T16:12:47.217Z,996.86
2022-12-12T16:17:47.147Z,996.87
2022-12-12T16:22:47.217Z,996.92
2022-12-12T16:27:47.050Z,996.96
2022-12-12T16:32:47.076Z,997.02
2022-12-12T16:37:46.939Z,997.03
2022-12-12T16:42:46.945Z,997.01
2022-12-12T16:47:46.838Z,997.02
2022-12-12T16:52:46.790Z,997.02
2022-12-12T16:57:46.725Z,997.08
2022-12-12T17:02:46.645Z,997.08
2022-12-12T17:07:46.811Z,997.05
2022-12-12T17:12:46.638Z,997.02
2022-12-12T17:17:46.530Z,997.02
2022-12-12T17:22:46.440Z,996.93
2022-12-12T17:27:46.378Z,996.97
2022-12-12T17:33:22.064Z,996.95
2022-12-12T17:37:46.268Z,996.97
2022-12-12T17:42:46.225Z,997.02
2022-12-12T17:47:46.156Z,997.04
2022-12-12T17:52:46.130Z,997.01
2022-12-12T17:57:46.110Z,996.99
2022-12-12T18:02:46.078Z,996.99
2022-12-12T18:07:45.945Z,996.97
2022-12-12T18:12:51.460Z,996.91
2022-12-12T18:17:46.840Z,996.94
2022-12-12T18:22:45.920Z,996.94
2022-12-12T18:27:45.814Z,996.90
2022-12-12T18:32:45.694Z,996.90
2022-12-12T18:37:45.718Z,996.84
2022-12-12T18:42:45.608Z,996.87
2022-12-12T18:47:45.525Z,996.86
2022-12-12T18:52:45.532Z,996.92
2022-12-12T18:57:45.457Z,996.96
2022-12-12T19:02:45.424Z,996.93
2022-12-12T19:07:45.332Z,996.91
2022-12-12T19:12:45.262Z,996.85
2022-12-12T19:17:45.186Z,996.83
2022-12-12T19:22:46.655Z,996.84
2022-12-12T19:27:45.124Z,996.80
2022-12-12T19:32:45.069Z,996.82
2022-12-12T19:37:45.036Z,996.78
2022-12-12T19:42:45.039Z,996.70
2022-12-12T19:47:45.007Z,996.75
2022-12-12T19:52:44.837Z,996.79
2022-12-12T19:57:44.776Z,996.85
2022-12-12T20:02:44.751Z,996.86
2022-12-12T20:07:45.666Z,996.83
2022-12-12T20:12:56.176Z,996.87
2022-12-12T20:17:46.681Z,996.83
2022-12-12T20:22:44.495Z,996.85
2022-12-12T20:27:44.477Z,996.86
2022-12-12T20:32:46.605Z,996.85
2022-12-12T20:37:44.397Z,996.90
2022-12-12T20:42:47.324Z,996.97
2022-12-12T20:47:45.251Z,997.00
2022-12-12T20:52:44.225Z,997.03
2022-12-12T20:57:44.168Z,997.02
2022-12-12T21:02:44.213Z,997.06
2022-12-12T21:07:44.125Z,997.05
2022-12-12T21:12:44.000Z,997.03
2022-12-12T21:17:43.923Z,996.96
2022-12-12T21:22:43.876Z,997.04
2022-12-12T21:27:43.823Z,997.03
2022-12-12T21:32:43.806Z,997.05
2022-12-12T21:37:43.755Z,996.99
2022-12-12T21:42:43.673Z,997.08
2022-12-12T21:47:43.632Z,997.03
2022-12-12T21:52:43.563Z,997.00
2022-12-12T21:57:43.662Z,996.98
2022-12-12T22:02:48.301Z,996.91
2022-12-12T22:07:44.395Z,997.01
2022-12-12T22:12:43.450Z,996.98
2022-12-12T22:17:44.452Z,996.91
2022-12-12T22:22:43.250Z,996.89
2022-12-12T22:27:43.337Z,997.01
2022-12-12T22:32:43.118Z,996.98
2022-12-12T22:37:43.125Z,996.93
2022-12-12T22:42:43.080Z,996.96
2022-12-12T22:47:43.009Z,996.99
2022-12-12T22:52:42.970Z,996.88
2022-12-12T22:57:42.879Z,996.90
2022-12-12T23:02:42.819Z,996.92
2022-12-12T23:07:43.794Z,996.85
2022-12-12T23:12:42.723Z,996.77
2022-12-12T23:17:42.698Z,996.83
2022-12-12T23:22:42.669Z,996.77
2022-12-12T23:27:42.575Z,996.72
2022-12-12T23:32:42.526Z,996.61
2022-12-12T23:37:42.467Z,996.59
2022-12-12T23:42:42.389Z,996.58
2022-12-12T23:47:42.379Z,996.50
2022-12-12T23:52:42.319Z,996.52
2022-12-12T23:57:42.296Z,996.48
